Time;durP1;ratioP1;P1;durP2;ratioP2;P2;SDS_P1;SDS_P2;PMS_P1;PMS_P2;Temp;Humidity;BMP_temperature;BMP_pressure;BME280_temperature;BME280_humidity;BME280_pressure;Samples;Min_cycle;Max_cycle;Signal;HPM_P1;HPM_P2
2021/08/18 00:01:21;;;;;;;14.28;8.48;;;;;;;21.98;85.87;100429.78;1735742;81;21517;-60
2021/08/18 00:03:49;;;;;;;19.50;9.00;;;;;;;22.02;85.79;100433.47;1706988;83;21567;-61
2021/08/18 00:06:15;;;;;;;19.37;8.40;;;;;;;22.06;85.87;100427.73;1715935;82;21068;-61
2021/08/18 00:14:00;;;;;;;21.55;8.80;;;;;;;22.12;86.26;100440.34;1723504;82;21627;-61
2021/08/18 00:16:29;;;;;;;16.77;8.30;;;;;;;22.14;86.25;100434.73;1713285;82;21130;-61
2021/08/18 00:18:58;;;;;;;16.87;8.58;;;;;;;22.14;86.25;100441.55;1709036;82;21071;-61
2021/08/18 00:21:26;;;;;;;14.85;8.30;;;;;;;22.10;86.58;100438.73;1719703;82;21674;-61
2021/08/18 00:24:04;;;;;;;23.70;8.38;;;;;;;22.07;86.55;100439.02;1703602;82;21145;-60
2021/08/18 00:32:36;;;;;;;14.53;8.30;;;;;;;22.00;87.30;100449.12;1718156;82;21418;-60
2021/08/18 00:35:08;;;;;;;20.80;8.30;;;;;;;22.03;87.36;100447.48;1716530;82;21422;-61
2021/08/18 00:37:48;;;;;;;16.42;8.68;;;;;;;22.09;87.55;100440.59;1714626;82;20980;-61
2021/08/18 00:40:15;;;;;;;20.25;9.20;;;;;;;22.12;87.27;100442.20;1712018;82;21404;-60
2021/08/18 00:42:54;;;;;;;20.55;9.10;;;;;;;22.12;86.93;100438.09;1726598;82;21140;-60
2021/08/18 00:45:21;;;;;;;14.20;8.28;;;;;;;22.08;87.35;100442.11;1711261;82;21670;-60
2021/08/18 00:48:00;;;;;;;17.00;8.83;;;;;;;22.09;87.83;100443.84;1701132;83;21027;-60
2021/08/18 00:56:36;;;;;;;19.02;9.43;;;;;;;21.95;87.78;100451.38;1707075;82;21005;-59
2021/08/18 00:59:39;;;;;;;16.95;8.13;;;;;;;21.80;88.17;100462.29;1704529;82;21051;-60
2021/08/18 01:04:56;;;;;;;29.35;10.98;;;;;;;21.42;89.93;100473.62;1686659;84;21554;-60
2021/08/18 01:07:27;;;;;;;21.57;9.55;;;;;;;21.30;90.58;100467.83;1682664;84;21173;-60
2021/08/18 01:10:08;;;;;;;18.30;9.58;;;;;;;21.21;90.99;100469.48;1709491;83;21900;-61
2021/08/18 01:12:42;;;;;;;27.52;9.68;;;;;;;21.14;91.44;100474.61;1683822;84;21098;-61
2021/08/18 01:15:34;;;;;;;20.35;9.35;;;;;;;21.09;91.93;100485.00;1691000;83;21486;-60
2021/08/18 01:21:23;;;;;;;16.65;9.35;;;;;;;20.90;93.15;100469.34;1693479;84;21586;-61
2021/08/18 01:23:52;;;;;;;14.80;9.25;;;;;;;20.82;93.79;100471.34;1688068;84;21092;-61
2021/08/18 01:26:20;;;;;;;16.25;8.98;;;;;;;20.77;94.32;100466.74;1706655;82;21564;-60
2021/08/18 01:29:00;;;;;;;20.65;9.95;;;;;;;20.71;94.62;100474.07;1705625;83;21147;-61
2021/08/18 01:31:27;;;;;;;22.27;11.00;;;;;;;20.61;95.16;100469.36;1697396;83;21102;-60
2021/08/18 01:36:32;;;;;;;19.57;10.48;;;;;;;20.51;96.13;100477.93;1717710;83;21530;-60
2021/08/18 01:41:50;;;;;;;49.88;37.75;;;;;;;20.41;97.23;100478.30;1709847;83;21103;-61
2021/08/18 01:47:10;;;;;;;47.05;38.28;;;;;;;20.35;98.38;100480.16;1688172;84;21112;-62
2021/08/18 01:49:39;;;;;;;39.03;25.90;;;;;;;20.33;98.63;100485.23;1663967;83;21099;-61
2021/08/18 01:52:12;;;;;;;49.50;30.77;;;;;;;20.29;98.88;100486.48;1701084;82;21096;-61
2021/08/18 01:54:38;;;;;;;78.40;46.50;;;;;;;20.24;98.92;100483.27;1718684;82;21498;-60
2021/08/18 01:57:06;;;;;;;83.70;51.00;;;;;;;20.17;99.04;100486.97;1740755;81;21059;-60
2021/08/18 01:59:48;;;;;;;83.27;51.83;;;;;;;20.15;99.40;100492.15;1697351;82;21123;-60
2021/08/18 02:02:27;;;;;;;66.77;41.20;;;;;;;20.15;99.54;100496.23;1683638;84;21653;-60
2021/08/18 02:05:07;;;;;;;56.80;35.70;;;;;;;20.13;99.47;100485.48;1689084;84;21072;-60
2021/08/18 02:12:40;;;;;;;40.12;22.93;;;;;;;20.07;98.85;100493.27;1693369;83;21009;-60
2021/08/18 02:15:15;;;;;;;33.55;18.95;;;;;;;20.08;98.58;100496.36;1694702;83;21573;-61
2021/08/18 02:17:43;;;;;;;33.55;18.35;;;;;;;20.07;98.11;100497.34;1707217;81;21469;-61
2021/08/18 02:20:19;;;;;;;24.77;14.95;;;;;;;20.03;97.66;100495.35;1718630;82;21162;-60
2021/08/18 02:31:10;;;;;;;24.57;10.08;;;;;;;19.97;96.54;100492.62;1645827;85;21115;-60
2021/08/18 02:33:55;;;;;;;18.85;10.55;;;;;;;19.96;96.17;100489.52;1713991;83;21050;-60
2021/08/18 02:36:22;;;;;;;25.27;10.43;;;;;;;19.99;95.82;100487.91;1707182;82;21656;-60
2021/08/18 02:38:51;;;;;;;23.02;9.50;;;;;;;19.99;95.39;100481.11;1715516;81;21157;-60
2021/08/18 02:44:24;;;;;;;17.00;9.40;;;;;;;20.07;94.73;100475.06;1700776;83;21159;-60
2021/08/18 02:49:55;;;;;;;18.27;8.80;;;;;;;20.15;93.71;100478.55;1715992;83;21094;-61
2021/08/18 02:52:23;;;;;;;16.42;9.20;;;;;;;20.16;93.33;100482.99;1715797;83;21063;-61
2021/08/18 02:54:49;;;;;;;14.33;8.63;;;;;;;20.15;93.13;100475.34;1717881;83;21827;-60
2021/08/18 02:57:18;;;;;;;13.30;8.48;;;;;;;20.17;92.96;100479.28;1710366;83;21059;-59
2021/08/18 03:00:08;;;;;;;18.90;8.28;;;;;;;20.22;92.88;100472.13;1710224;83;21084;-61
2021/08/18 03:02:38;;;;;;;15.05;8.33;;;;;;;20.29;92.64;100476.06;1703465;83;21564;-61
2021/08/18 03:05:23;;;;;;;21.90;9.18;;;;;;;20.40;92.07;100487.45;1676996;84;21074;-60
2021/08/18 03:08:30;;;;;;;15.80;8.60;;;;;;;20.46;91.58;100481.53;1671298;85;21144;-60
2021/08/18 03:11:04;;;;;;;20.48;8.40;;;;;;;20.50;91.28;100478.92;1666891;84;21230;-61
2021/08/18 03:18:56;;;;;;;39.85;11.75;;;;;;;20.67;90.66;100483.46;1624023;87;21402;-60
2021/08/18 03:21:23;;;;;;;33.55;11.90;;;;;;;20.66;90.05;100481.25;1646023;86;21800;-61
2021/08/18 03:29:29;;;;;;;33.33;12.88;;;;;;;20.77;90.71;100485.81;1706286;83;21056;-61
2021/08/18 03:34:53;;;;;;;;;;;;;;;20.89;90.37;100480.75;1684543;84;21107;-61
2021/08/18 03:37:20;;;;;;;15.72;7.80;;;;;;;20.95;90.03;100479.87;1681496;84;20204;-61
2021/08/18 03:39:52;;;;;;;17.57;7.20;;;;;;;20.99;89.27;100487.63;1679706;84;21730;-61
2021/08/18 03:42:21;;;;;;;26.05;8.15;;;;;;;21.09;88.81;100484.16;1696504;83;21058;-62
2021/08/18 03:45:06;;;;;;;25.27;10.18;;;;;;;21.17;88.19;100478.44;1712072;83;21810;-60
2021/08/18 03:56:11;;;;;;;62.50;11.85;;;;;;;21.52;86.47;100485.09;1636412;86;21093;-59
2021/08/18 03:58:39;;;;;;;78.47;13.53;;;;;;;21.58;86.07;100475.03;1668627;85;21059;-61
2021/08/18 04:03:58;;;;;;;46.75;11.22;;;;;;;21.77;85.09;100477.53;1643673;86;21713;-61
2021/08/18 04:06:26;;;;;;;68.83;12.33;;;;;;;21.88;84.85;100470.17;1668649;85;21072;-62
2021/08/18 04:08:52;;;;;;;81.35;12.60;;;;;;;22.03;84.42;100459.77;1666701;85;21143;-62
2021/08/18 04:11:20;;;;;;;133.72;14.80;;;;;;;22.18;83.85;100458.02;1675170;85;21154;-60
2021/08/18 04:16:48;;;;;;;131.57;14.25;;;;;;;22.48;82.70;100467.73;1678479;85;21067;-61
2021/08/18 04:24:56;;;;;;;97.85;13.60;;;;;;;22.81;80.55;100447.39;1624018;87;20975;-62
2021/08/18 04:27:23;;;;;;;121.60;14.50;;;;;;;22.94;79.91;100458.06;1673904;85;22182;-61
2021/08/18 04:32:32;;;;;;;97.33;14.75;;;;;;;23.14;78.67;100450.76;1678762;84;21145;-62
2021/08/18 04:44:59;;;;;;;74.87;17.35;;;;;;;23.64;76.67;100447.51;1675385;85;21530;-62
2021/08/18 04:47:38;;;;;;;48.13;15.08;;;;;;;23.77;75.86;100448.56;1672843;85;21508;-63
2021/08/18 04:50:08;;;;;;;31.27;12.30;;;;;;;23.89;75.50;100444.66;1668671;85;21079;-63
2021/08/18 04:52:36;;;;;;;27.42;10.15;;;;;;;24.02;74.88;100447.09;1661773;85;21594;-62
2021/08/18 04:55:04;;;;;;;29.60;11.05;;;;;;;24.16;74.06;100439.38;1642194;85;21494;-62
2021/08/18 04:57:34;;;;;;;29.12;10.45;;;;;;;24.27;73.62;100440.58;1711627;83;21019;-62
2021/08/18 05:00:03;;;;;;;22.55;10.03;;;;;;;24.40;73.22;100438.86;1719475;83;21491;-62
2021/08/18 05:02:34;;;;;;;15.38;9.55;;;;;;;24.52;72.74;100443.63;1717375;83;21094;-62
2021/08/18 05:05:05;;;;;;;21.40;9.05;;;;;;;24.61;72.56;100442.69;1703564;82;21087;-62
2021/08/18 05:12:57;;;;;;;16.07;9.38;;;;;;;25.10;70.88;100459.38;1661478;85;21715;-62
2021/08/18 05:15:27;;;;;;;15.50;8.73;;;;;;;25.25;70.45;100456.06;1650891;85;21108;-61
2021/08/18 05:18:29;;;;;;;17.60;9.43;;;;;;;25.40;69.81;100458.61;1627416;87;21960;-61
2021/08/18 05:21:08;;;;;;;14.85;8.68;;;;;;;25.53;69.26;100453.24;1683798;83;21491;-62
2021/08/18 05:36:31;;;;;;;40.80;8.38;;;;;;;26.14;65.91;100438.20;1724227;82;21529;-62
2021/08/18 05:41:29;;;;;;;52.80;9.20;;;;;;;26.38;65.00;100451.74;1721929;82;21079;-62
2021/08/18 05:43:56;;;;;;;35.75;7.30;;;;;;;26.49;64.73;100451.45;1645789;86;21548;-62
2021/08/18 05:46:23;;;;;;;42.05;9.00;;;;;;;26.62;64.30;100451.48;1673581;85;21102;-62
2021/08/18 05:51:19;;;;;;;37.67;7.35;;;;;;;26.86;63.54;100450.25;1668390;84;21535;-63
2021/08/18 05:53:50;;;;;;;38.65;8.05;;;;;;;27.04;62.74;100446.47;1653010;84;21084;-62
2021/08/18 05:56:18;;;;;;;47.55;8.93;;;;;;;27.17;61.75;100452.34;1638897;86;21775;-61
2021/08/18 05:58:45;;;;;;;37.88;8.90;;;;;;;27.25;61.52;100450.13;1663265;85;21047;-62
2021/08/18 06:01:13;;;;;;;38.92;8.43;;;;;;;27.35;61.37;100443.08;1678348;85;21050;-62
2021/08/18 06:14:11;;;;;;;20.25;7.85;;;;;;;27.92;59.81;100427.54;1666751;84;21606;-62
2021/08/18 06:16:43;;;;;;;29.55;8.15;;;;;;;28.02;59.03;100429.59;1653854;84;21555;-63
2021/08/18 06:19:11;;;;;;;17.65;7.22;;;;;;;28.10;58.89;100421.83;1663764;84;22026;-62
2021/08/18 06:21:38;;;;;;;18.25;7.87;;;;;;;28.20;58.37;100420.28;1640422;86;22193;-62
2021/08/18 06:24:15;;;;;;;14.05;7.33;;;;;;;28.26;57.92;100415.42;1675587;84;21172;-63
2021/08/18 06:26:34;;;;;;;12.18;7.22;;;;;;;28.31;57.48;100418.49;1677251;84;21125;-63
2021/08/18 06:29:04;;;;;;;10.63;6.92;;;;;;;28.39;57.05;100419.48;1672793;84;37798;-62
2021/08/18 06:34:00;;;;;;;15.25;6.90;;;;;;;28.47;56.77;100413.95;1663478;84;21116;-63
2021/08/18 06:36:29;;;;;;;11.10;6.70;;;;;;;28.50;56.68;100412.20;1665624;84;21143;-63
2021/08/18 06:38:56;;;;;;;11.85;7.00;;;;;;;28.50;56.78;100410.83;1666581;84;21473;-63
2021/08/18 06:41:23;;;;;;;9.38;6.72;;;;;;;28.51;56.91;100410.30;1659905;84;21590;-63
2021/08/18 06:43:51;;;;;;;12.82;6.65;;;;;;;28.52;57.22;100412.89;1694020;82;21114;-63
2021/08/18 06:46:18;;;;;;;9.20;6.08;;;;;;;28.57;56.87;100408.22;1672857;82;21123;-63
2021/08/18 06:48:47;;;;;;;9.88;6.30;;;;;;;28.58;56.29;100407.17;1696880;82;21689;-62
2021/08/18 06:51:16;;;;;;;7.30;6.08;;;;;;;28.58;56.45;100405.26;1709626;82;21143;-62
2021/08/18 06:53:43;;;;;;;11.10;7.05;;;;;;;28.63;56.00;100410.24;1699698;82;21083;-63
2021/08/18 06:56:11;;;;;;;7.08;5.45;;;;;;;28.68;55.70;100409.70;1708324;82;21690;-63
2021/08/18 06:58:40;;;;;;;8.65;5.53;;;;;;;28.75;55.81;100407.92;1669566;84;21477;-62
2021/08/18 07:01:19;;;;;;;6.60;5.50;;;;;;;28.82;55.84;100404.80;1671321;84;20909;-63
2021/08/18 07:03:47;;;;;;;6.40;5.10;;;;;;;28.89;56.05;100410.45;1701394;82;21017;-64
2021/08/18 07:06:17;;;;;;;7.50;5.20;;;;;;;28.93;55.78;100409.58;1694082;82;21061;-63
2021/08/18 07:08:45;;;;;;;7.53;5.22;;;;;;;28.96;55.24;100411.96;1704448;82;20920;-63
2021/08/18 07:11:12;;;;;;;7.85;5.40;;;;;;;28.96;55.48;100405.06;1714083;82;21558;-63
2021/08/18 07:13:40;;;;;;;9.45;6.10;;;;;;;29.03;55.60;100407.41;1711895;82;21072;-63
2021/08/18 07:18:48;;;;;;;11.05;5.45;;;;;;;29.18;55.31;100410.27;1705318;82;21082;-64
2021/08/18 07:21:19;;;;;;;8.28;5.30;;;;;;;29.25;55.18;100408.97;1697700;82;21632;-63
2021/08/18 07:23:44;;;;;;;9.68;5.42;;;;;;;29.31;55.05;100417.38;1701817;82;21068;-63
2021/08/18 07:26:11;;;;;;;8.18;4.85;;;;;;;29.41;54.25;100414.39;1708868;82;21753;-61
2021/08/18 07:28:40;;;;;;;8.58;5.10;;;;;;;29.49;53.59;100398.78;1710711;82;21126;-62
2021/08/18 07:31:07;;;;;;;6.28;4.40;;;;;;;29.58;53.20;100403.20;1715958;82;21548;-62
2021/08/18 07:33:34;;;;;;;8.38;5.10;;;;;;;29.62;51.58;100394.87;1712894;83;21123;-63
2021/08/18 07:36:02;;;;;;;8.10;5.03;;;;;;;29.68;51.45;100398.79;1709906;82;21131;-62
2021/08/18 07:46:10;;;;;;;6.83;4.22;;;;;;;29.89;47.86;100402.17;1712802;82;21127;-63
2021/08/18 07:56:51;;;;;;;8.35;4.45;;;;;;;30.09;47.97;100403.02;1711983;82;21055;-63
2021/08/18 07:59:18;;;;;;;10.05;4.50;;;;;;;30.10;47.12;100413.02;1711938;82;21478;-64
2021/08/18 08:01:46;;;;;;;61.95;49.83;;;;;;;30.12;45.41;100411.80;1706073;82;21534;-64
2021/08/18 08:06:51;;;;;;;5.70;3.95;;;;;;;30.22;44.84;100414.27;1717011;82;21178;-61
2021/08/18 08:09:18;;;;;;;7.53;3.83;;;;;;;30.24;40.70;100409.41;1711047;82;21114;-63
2021/08/18 08:11:46;;;;;;;8.65;4.00;;;;;;;30.25;39.68;100406.97;1718766;82;21108;-60
2021/08/18 08:14:13;;;;;;;5.03;3.75;;;;;;;30.29;41.29;100406.91;1713233;82;21055;-61
2021/08/18 08:16:40;;;;;;;7.53;3.87;;;;;;;30.33;40.50;100402.38;1705923;82;21674;-61
2021/08/18 08:19:08;;;;;;;6.97;3.90;;;;;;;30.36;41.07;100396.45;1698818;82;21095;-61
2021/08/18 08:21:34;;;;;;;6.10;3.90;;;;;;;30.39;40.67;100405.74;1706724;83;21598;-60
2021/08/18 08:24:01;;;;;;;5.75;4.17;;;;;;;30.43;39.25;100405.17;1711620;82;21064;-59
2021/08/18 08:31:52;;;;;;;5.00;3.22;;;;;;;30.66;38.91;100413.03;1716557;82;21723;-60
2021/08/18 08:34:19;;;;;;;8.38;3.50;;;;;;;30.68;36.65;100394.33;1706377;83;21098;-60
2021/08/18 08:36:46;;;;;;;5.00;3.10;;;;;;;30.66;36.44;100397.82;1721767;82;21101;-59
2021/08/18 08:42:09;;;;;;;5.70;4.05;;;;;;;30.67;36.46;100392.63;1704302;83;21039;-63
2021/08/18 08:44:37;;;;;;;6.72;4.25;;;;;;;30.64;40.20;100377.80;1709225;82;21357;-60
2021/08/18 08:47:06;;;;;;;6.55;4.45;;;;;;;30.58;41.36;100384.94;1709127;83;21091;-61
2021/08/18 08:52:26;;;;;;;8.53;5.30;;;;;;;30.53;44.37;100382.73;1711548;82;21125;-62
2021/08/18 08:54:53;;;;;;;4.70;3.90;;;;;;;30.55;42.01;100377.87;1678408;83;21097;-61
2021/08/18 08:59:54;;;;;;;9.88;4.80;;;;;;;30.53;41.25;100379.13;1673250;84;21084;-60
2021/08/18 09:02:28;;;;;;;7.92;4.83;;;;;;;30.49;42.81;100377.78;1644609;85;21050;-63
2021/08/18 09:04:55;;;;;;;;;;;;;;;30.48;44.24;100371.92;1676266;84;21127;-61
2021/08/18 09:07:24;;;;;;;6.30;3.72;;;;;;;30.44;43.78;100364.56;1677285;84;20221;-61
2021/08/18 09:09:55;;;;;;;6.08;3.90;;;;;;;30.42;43.30;100377.73;1643933;86;20992;-62
2021/08/18 09:15:27;;;;;;;5.60;4.45;;;;;;;30.29;44.58;100367.37;1644443;86;21091;-64
2021/08/18 09:17:54;;;;;;;7.45;5.15;;;;;;;30.20;47.02;100361.09;1699154;82;21987;-61
2021/08/18 09:20:25;;;;;;;7.10;4.90;;;;;;;30.18;48.21;100354.02;1709688;82;21102;-64
2021/08/18 09:23:00;;;;;;;9.20;4.95;;;;;;;30.18;48.46;100357.66;1709814;83;21028;-64
2021/08/18 09:25:48;;;;;;;8.88;5.50;;;;;;;30.13;49.17;100353.20;1713542;83;21320;-60
2021/08/18 09:28:13;;;;;;;6.75;4.72;;;;;;;30.09;49.52;100349.13;1698854;82;21114;-60
2021/08/18 09:30:45;;;;;;;5.97;4.65;;;;;;;30.05;49.74;100350.02;1712674;82;21890;-63
2021/08/18 09:35:41;;;;;;;13.08;7.85;;;;;;;30.01;49.55;100344.05;1712301;82;21556;-63
2021/08/18 09:38:12;;;;;;;6.80;4.90;;;;;;;30.07;49.43;100351.23;1675432;83;21099;-61
2021/08/18 09:43:25;;;;;;;11.97;4.58;;;;;;;30.14;49.00;100342.48;1675749;84;21149;-61
2021/08/18 09:46:04;;;;;;;5.65;4.10;;;;;;;30.16;48.70;100344.53;1664307;85;21456;-59
2021/08/18 09:48:35;;;;;;;8.08;4.67;;;;;;;30.17;48.42;100339.33;1625920;85;21130;-59
2021/08/18 09:51:10;;;;;;;5.12;4.15;;;;;;;30.19;48.40;100342.79;1645293;85;21079;-60
2021/08/18 09:56:44;;;;;;;5.65;3.90;;;;;;;30.28;49.02;100336.59;1679793;83;21151;-60
2021/08/18 09:59:11;;;;;;;5.12;3.92;;;;;;;30.30;48.10;100337.28;1681392;83;21069;-59
2021/08/18 10:01:39;;;;;;;7.08;3.80;;;;;;;30.28;47.82;100335.20;1678866;83;21092;-60
2021/08/18 10:04:06;;;;;;;5.42;3.80;;;;;;;30.27;47.04;100327.97;1682177;83;21628;-59
2021/08/18 10:06:33;;;;;;;6.53;4.33;;;;;;;30.20;46.57;100338.97;1687337;83;21185;-60
2021/08/18 10:09:01;;;;;;;6.53;3.75;;;;;;;30.09;47.11;100324.25;1708159;82;21126;-59
2021/08/18 10:11:29;;;;;;;7.33;4.15;;;;;;;30.01;47.05;100327.94;1641180;84;21183;-59
2021/08/18 10:16:43;;;;;;;5.42;3.47;;;;;;;29.96;48.14;100324.39;1677343;83;21166;-60
2021/08/18 10:19:12;;;;;;;7.95;4.08;;;;;;;29.97;47.35;100316.95;1677720;83;21159;-60
2021/08/18 10:21:41;;;;;;;7.30;4.25;;;;;;;29.96;47.11;100316.11;1688086;82;21021;-60
2021/08/18 10:24:13;;;;;;;13.08;4.70;;;;;;;29.95;47.52;100321.27;1671265;82;21564;-60
2021/08/18 10:26:49;;;;;;;8.20;4.65;;;;;;;29.95;47.84;100317.12;1663512;82;21158;-60
2021/08/18 10:29:30;;;;;;;10.20;4.90;;;;;;;30.00;47.95;100317.43;1682000;82;21093;-60
2021/08/18 10:32:08;;;;;;;10.63;4.20;;;;;;;30.06;48.19;100314.97;1686422;83;21072;-60
2021/08/18 10:34:43;;;;;;;8.48;4.22;;;;;;;30.11;48.36;100326.29;1676216;82;21213;-61
2021/08/18 10:37:37;;;;;;;12.28;4.22;;;;;;;30.10;48.44;100323.20;1681575;83;21020;-59
2021/08/18 10:40:09;;;;;;;7.65;4.95;;;;;;;30.11;48.74;100324.91;1686493;83;21049;-61
2021/08/18 10:42:40;;;;;;;11.68;5.33;;;;;;;30.10;49.90;100323.20;1684311;83;21532;-60
2021/08/18 10:50:43;;;;;;;6.87;4.05;;;;;;;30.09;50.54;100328.39;1651184;85;21677;-65
2021/08/18 10:55:55;;;;;;;5.85;4.20;;;;;;;30.06;50.74;100323.26;1678052;84;21139;-63
2021/08/18 11:00:56;;;;;;;10.78;4.53;;;;;;;29.92;50.64;100328.56;1681569;83;21149;-63
2021/08/18 11:03:26;;;;;;;7.12;4.20;;;;;;;29.87;50.97;100323.64;1681774;83;21089;-62
2021/08/18 11:05:54;;;;;;;7.17;4.45;;;;;;;29.81;49.42;100318.02;1695299;83;21108;-64
2021/08/18 11:11:08;;;;;;;6.25;4.05;;;;;;;29.82;49.77;100311.44;1684523;83;21588;-63
2021/08/18 11:14:08;;;;;;;7.70;4.17;;;;;;;29.79;49.80;100307.69;1676967;83;21589;-63
2021/08/18 11:16:35;;;;;;;10.38;4.22;;;;;;;29.75;48.77;100304.98;1676365;83;21087;-60
2021/08/18 11:19:11;;;;;;;6.30;4.05;;;;;;;29.73;48.62;100315.70;1683346;83;21103;-61
2021/08/18 11:21:41;;;;;;;8.10;4.62;;;;;;;29.71;49.04;100310.02;1690759;83;21136;-60
2021/08/18 11:24:11;;;;;;;11.57;4.33;;;;;;;29.67;47.51;100305.92;1678233;83;21059;-59
2021/08/18 11:29:20;;;;;;;9.53;4.92;;;;;;;29.63;47.66;100306.83;1682973;83;21741;-59
2021/08/18 11:31:51;;;;;;;8.00;4.30;;;;;;;29.63;48.67;100304.06;1682306;83;21152;-59
2021/08/18 11:34:29;;;;;;;8.53;4.10;;;;;;;29.64;48.05;100300.79;1670653;83;21849;-60
2021/08/18 11:37:07;;;;;;;7.72;4.30;;;;;;;29.57;47.95;100297.92;1678951;83;21091;-60
2021/08/18 11:42:18;;;;;;;14.73;4.83;;;;;;;29.53;49.29;100293.84;1688814;83;21132;-60
2021/08/18 11:44:47;;;;;;;7.90;4.87;;;;;;;29.50;50.85;100298.33;1692621;83;21057;-60
2021/08/18 11:53:25;;;;;;;12.33;4.40;;;;;;;29.44;52.02;100296.67;1678909;84;21995;-59
2021/08/18 11:56:08;;;;;;;12.73;4.40;;;;;;;29.37;51.89;100295.69;1685053;83;21139;-60
2021/08/18 11:58:36;;;;;;;6.37;4.15;;;;;;;29.30;53.53;100298.34;1684643;83;21679;-59
2021/08/18 12:01:06;;;;;;;6.47;4.40;;;;;;;29.23;54.51;100299.28;1684297;83;21202;-59
2021/08/18 12:03:33;;;;;;;6.95;4.47;;;;;;;29.18;54.01;100292.09;1689309;83;21079;-58
2021/08/18 12:06:04;;;;;;;12.82;4.20;;;;;;;29.14;55.28;100288.33;1685258;83;21128;-60
2021/08/18 12:08:38;;;;;;;5.12;4.10;;;;;;;29.12;56.00;100292.31;1683854;83;21036;-59
2021/08/18 12:11:08;;;;;;;5.42;4.20;;;;;;;29.10;55.88;100288.37;1688785;83;21123;-60
2021/08/18 12:16:32;;;;;;;8.98;3.87;;;;;;;29.08;56.71;100280.81;1675164;82;21524;-60
2021/08/18 12:19:18;;;;;;;9.83;4.15;;;;;;;29.05;56.90;100279.78;1686864;83;21120;-59
2021/08/18 12:21:49;;;;;;;8.05;4.58;;;;;;;29.02;56.26;100276.02;1679897;83;21549;-59
2021/08/18 12:24:17;;;;;;;8.05;4.22;;;;;;;28.99;55.34;100273.64;1678225;82;21075;-59
2021/08/18 12:32:38;;;;;;;8.73;4.78;;;;;;;28.95;56.74;100264.02;1684928;83;21605;-60
2021/08/18 12:35:10;;;;;;;8.45;4.55;;;;;;;28.92;56.98;100264.41;1693762;83;21887;-61
2021/08/18 12:37:40;;;;;;;7.95;4.85;;;;;;;28.88;57.35;100259.27;1693911;83;21701;-60
2021/08/18 12:50:48;;;;;;;8.20;4.60;;;;;;;28.88;57.24;100255.13;1684443;83;21096;-60
2021/08/18 12:53:16;;;;;;;11.18;4.20;;;;;;;28.92;56.11;100239.58;1690443;83;21148;-60
2021/08/18 12:55:45;;;;;;;8.05;5.08;;;;;;;28.97;54.04;100242.62;1682050;83;21516;-60
2021/08/18 12:58:20;;;;;;;12.45;4.75;;;;;;;28.99;53.30;100241.41;1685986;83;21609;-60
2021/08/18 13:00:53;;;;;;;9.58;4.92;;;;;;;29.04;53.61;100240.81;1646147;84;21131;-62
2021/08/18 13:03:20;;;;;;;7.70;4.67;;;;;;;29.06;54.72;100236.50;1699250;82;21063;-64
2021/08/18 13:05:48;;;;;;;14.43;4.45;;;;;;;29.07;54.89;100235.45;1682028;83;21148;-60
2021/08/18 13:08:16;;;;;;;5.72;4.58;;;;;;;29.07;54.55;100236.33;1684108;83;21755;-60
2021/08/18 13:13:17;;;;;;;8.65;4.90;;;;;;;29.12;54.50;100229.72;1691179;83;21490;-61
2021/08/18 13:15:46;;;;;;;6.72;4.55;;;;;;;29.15;54.64;100230.71;1693544;82;21089;-61
2021/08/18 13:20:45;;;;;;;8.18;4.75;;;;;;;29.29;55.42;100232.27;1689477;83;21124;-61
2021/08/18 13:23:13;;;;;;;7.75;4.70;;;;;;;29.34;56.15;100224.81;1688942;82;21428;-62
2021/08/18 13:25:40;;;;;;;9.80;5.03;;;;;;;29.39;56.02;100225.09;1687764;82;21722;-61
2021/08/18 13:28:08;;;;;;;10.72;4.87;;;;;;;29.39;56.28;100224.58;1683351;82;21057;-60
2021/08/18 13:36:29;;;;;;;6.83;4.58;;;;;;;29.43;55.39;100212.12;1685703;83;21149;-61
2021/08/18 13:39:00;;;;;;;9.10;5.10;;;;;;;29.47;55.45;100209.85;1680196;82;21101;-61
2021/08/18 13:41:57;;;;;;;9.45;4.80;;;;;;;29.54;55.35;100212.70;1680268;83;21095;-61
2021/08/18 13:44:26;;;;;;;12.60;5.03;;;;;;;29.56;55.15;100199.56;1685513;83;21534;-60
2021/08/18 13:47:09;;;;;;;10.98;5.50;;;;;;;29.60;55.17;100195.36;1694146;82;21143;-60
2021/08/18 13:49:36;;;;;;;8.63;5.08;;;;;;;29.61;55.26;100199.83;1689437;82;22262;-61
2021/08/18 13:52:24;;;;;;;7.83;4.92;;;;;;;29.57;54.85;100187.47;1680804;82;21438;-61
2021/08/18 13:54:52;;;;;;;12.30;5.40;;;;;;;29.55;54.10;100190.41;1688019;82;21086;-60
2021/08/18 13:57:28;;;;;;;10.35;5.00;;;;;;;29.58;53.66;100183.11;1684482;82;21604;-61
2021/08/18 14:00:05;;;;;;;11.63;5.08;;;;;;;29.66;53.57;100187.67;1672624;83;21797;-61
2021/08/18 14:05:20;;;;;;;14.90;5.47;;;;;;;29.77;51.19;100187.70;1694362;83;21064;-61
2021/08/18 14:07:50;;;;;;;8.53;4.83;;;;;;;29.82;48.95;100185.74;1688864;84;21190;-60
2021/08/18 14:10:18;;;;;;;12.15;5.37;;;;;;;29.87;48.91;100187.39;1683903;83;21793;-60
2021/08/18 14:12:55;;;;;;;9.35;5.03;;;;;;;29.93;49.09;100189.36;1671715;83;20932;-60
2021/08/18 14:15:24;;;;;;;11.85;5.10;;;;;;;29.99;48.79;100185.84;1687497;82;21072;-61
2021/08/18 14:17:55;;;;;;;11.40;4.50;;;;;;;30.04;48.89;100185.27;1674671;82;21486;-60
2021/08/18 14:20:25;;;;;;;11.22;5.35;;;;;;;30.04;49.23;100188.02;1695053;82;21204;-60
2021/08/18 14:22:53;;;;;;;8.68;5.35;;;;;;;30.01;49.67;100178.23;1689425;83;21117;-60
2021/08/18 14:25:34;;;;;;;14.58;5.42;;;;;;;30.04;49.73;100187.19;1666379;83;21281;-60
2021/08/18 14:28:03;;;;;;;12.25;5.20;;;;;;;30.07;49.75;100178.50;1686280;83;21101;-60
2021/08/18 14:30:30;;;;;;;8.18;5.05;;;;;;;30.07;50.03;100177.11;1689786;83;21806;-60
2021/08/18 14:33:04;;;;;;;9.50;5.25;;;;;;;30.05;50.70;100176.46;1685307;83;21191;-60
2021/08/18 14:40:44;;;;;;;13.08;5.28;;;;;;;29.83;51.54;100169.50;1685655;82;21851;-61
2021/08/18 14:51:10;;;;;;;17.30;5.53;;;;;;;29.61;52.71;100165.83;1675461;82;21140;-61
2021/08/18 14:56:20;;;;;;;10.82;5.10;;;;;;;29.53;54.00;100164.06;1686480;82;21446;-61
2021/08/18 14:58:48;;;;;;;11.97;5.12;;;;;;;29.52;53.59;100168.70;1681928;82;21601;-61
2021/08/18 15:01:15;;;;;;;11.18;5.10;;;;;;;29.51;54.34;100150.94;1690878;83;21084;-60
2021/08/18 15:03:43;;;;;;;9.73;5.22;;;;;;;29.46;53.97;100155.68;1688086;83;21201;-61
2021/08/18 15:06:10;;;;;;;9.98;5.28;;;;;;;29.40;53.33;100154.51;1689188;82;21143;-61
2021/08/18 15:08:37;;;;;;;12.75;5.22;;;;;;;29.42;52.69;100157.96;1684946;83;21148;-62
2021/08/18 15:11:08;;;;;;;7.90;4.80;;;;;;;29.44;52.38;100161.38;1681879;83;21122;-62
2021/08/18 15:13:36;;;;;;;8.35;5.42;;;;;;;29.51;52.66;100154.57;1670992;83;21084;-61
2021/08/18 15:16:08;;;;;;;20.12;6.12;;;;;;;29.61;52.22;100154.27;1645341;85;21107;-60
2021/08/18 15:18:42;;;;;;;13.68;6.85;;;;;;;29.68;51.53;100151.59;1628907;86;21088;-62
2021/08/18 15:24:12;;;;;;;13.70;8.83;;;;;;;29.85;49.25;100145.29;1697610;82;22492;-62
2021/08/18 15:26:39;;;;;;;15.53;9.18;;;;;;;29.92;47.91;100147.59;1677325;83;21116;-62
2021/08/18 15:32:01;;;;;;;19.73;8.95;;;;;;;30.07;46.95;100139.81;1697119;83;22308;-61
2021/08/18 15:34:36;;;;;;;18.77;10.00;;;;;;;30.16;46.66;100137.23;1695099;83;21137;-61
2021/08/18 15:37:33;;;;;;;23.62;10.30;;;;;;;30.22;47.03;100133.69;1679702;83;21160;-62
2021/08/18 15:39:59;;;;;;;23.45;11.57;;;;;;;30.25;47.20;100134.67;1687160;84;21008;-61
2021/08/18 15:42:26;;;;;;;22.15;11.63;;;;;;;30.26;47.94;100130.86;1620677;86;21133;-61
2021/08/18 15:44:54;;;;;;;27.93;11.50;;;;;;;30.26;48.77;100135.00;1680336;84;21198;-61
2021/08/18 15:47:22;;;;;;;38.95;12.55;;;;;;;30.26;49.39;100132.75;1694454;83;21153;-61
2021/08/18 15:49:49;;;;;;;25.02;12.15;;;;;;;30.24;49.58;100127.44;1688571;84;21094;-62
2021/08/18 15:52:16;;;;;;;31.40;13.13;;;;;;;30.18;49.39;100126.86;1684281;83;21554;-62
2021/08/18 15:57:20;;;;;;;33.48;15.70;;;;;;;29.99;49.08;100136.10;1664278;83;21748;-61
2021/08/18 15:59:48;;;;;;;41.92;18.42;;;;;;;29.93;49.41;100135.48;1690475;84;21537;-63
2021/08/18 16:02:15;;;;;;;44.53;19.10;;;;;;;29.86;49.71;100140.09;1689552;84;21723;-61